createdAt,value
2022-08-07T00:01:43.853Z,100547.00
2022-08-07T00:04:11.187Z,100550.00
2022-08-07T00:06:51.120Z,100547.00
2022-08-07T00:09:23.447Z,100551.00
2022-08-07T00:11:58.901Z,100536.00
2022-08-07T00:14:31.274Z,100531.00
2022-08-07T00:17:02.389Z,100541.00
2022-08-07T00:20:00.225Z,100536.00
2022-08-07T00:22:24.637Z,100543.00
2022-08-07T00:25:06.913Z,100535.00
2022-08-07T00:27:52.150Z,100541.00
2022-08-07T00:30:27.169Z,100535.00
2022-08-07T00:32:58.723Z,100532.00
2022-08-07T00:35:30.431Z,100541.00
2022-08-07T00:37:59.651Z,100531.00
2022-08-07T00:40:39.171Z,100536.00
2022-08-07T00:43:14.025Z,100533.00
2022-08-07T00:45:58.965Z,100521.00
2022-08-07T00:48:31.843Z,100538.00
2022-08-07T00:51:03.579Z,100528.00
2022-08-07T00:53:38.808Z,100530.00
2022-08-07T00:56:18.522Z,100528.00
2022-08-07T00:58:49.591Z,100525.00
2022-08-07T01:01:20.298Z,100528.00
2022-08-07T01:03:56.552Z,100510.00
2022-08-07T01:06:30.816Z,100518.00
2022-08-07T01:09:02.818Z,100525.00
2022-08-07T01:12:09.100Z,100513.00
2022-08-07T01:14:28.427Z,100521.00
2022-08-07T01:16:57.852Z,100525.00
2022-08-07T01:19:32.159Z,100521.00
2022-08-07T01:22:03.231Z,100524.00
2022-08-07T01:24:37.603Z,100513.00
2022-08-07T01:27:19.914Z,100520.00
2022-08-07T01:29:50.572Z,100531.00
2022-08-07T01:32:19.788Z,100530.00
2022-08-07T01:34:52.641Z,100531.00
2022-08-07T01:37:22.976Z,100535.00
2022-08-07T01:39:54.072Z,100540.00
2022-08-07T01:42:39.361Z,100523.00
2022-08-07T01:45:18.290Z,100532.00
2022-08-07T01:48:18.091Z,100539.00
2022-08-07T01:50:49.690Z,100530.00
2022-08-07T01:54:00.789Z,100525.00
2022-08-07T01:56:17.358Z,100517.00
2022-08-07T01:58:53.563Z,100517.00
2022-08-07T02:02:02.855Z,100529.00
2022-08-07T02:04:26.694Z,100525.00
2022-08-07T02:07:02.304Z,100525.00
2022-08-07T02:09:52.952Z,100529.00
2022-08-07T02:12:31.016Z,100526.00
2022-08-07T02:15:05.897Z,100541.00
2022-08-07T02:17:49.226Z,100529.00
2022-08-07T02:20:23.335Z,100531.00
2022-08-07T02:22:59.761Z,100497.00
2022-08-07T02:26:26.623Z,100527.00
2022-08-07T02:28:25.372Z,100523.00
2022-08-07T02:31:10.335Z,100525.00
2022-08-07T02:34:01.805Z,100518.00
2022-08-07T02:36:38.175Z,100513.00
2022-08-07T02:39:16.142Z,100524.00
2022-08-07T02:41:54.341Z,100522.00
2022-08-07T02:44:27.509Z,100514.00
2022-08-07T02:46:57.937Z,100523.00
2022-08-07T02:49:28.903Z,100522.00
2022-08-07T02:52:30.984Z,100514.00
2022-08-07T02:55:27.690Z,100522.00
2022-08-07T02:58:04.005Z,100499.00
2022-08-07T03:00:36.520Z,100520.00
2022-08-07T03:03:13.687Z,100527.00
2022-08-07T03:05:53.654Z,100535.00
2022-08-07T03:08:26.723Z,100527.00
2022-08-07T03:10:58.398Z,100516.00
2022-08-07T03:13:39.288Z,100524.00
2022-08-07T03:16:23.069Z,100513.00
2022-08-07T03:18:57.832Z,100510.00
2022-08-07T03:21:26.562Z,100505.00
2022-08-07T03:24:18.400Z,100502.00
2022-08-07T03:26:58.079Z,100507.00
2022-08-07T03:29:36.826Z,100505.00
2022-08-07T03:32:13.658Z,100506.00
2022-08-07T03:35:00.977Z,100496.00
2022-08-07T03:37:46.408Z,100504.00
2022-08-07T03:40:31.144Z,100488.00
2022-08-07T03:43:13.906Z,100495.00
2022-08-07T03:45:48.911Z,100504.00
2022-08-07T03:48:22.756Z,100494.00
2022-08-07T03:50:57.984Z,100495.00
2022-08-07T03:54:33.353Z,100499.00
2022-08-07T03:56:33.472Z,100496.00
2022-08-07T03:59:09.983Z,100497.00
2022-08-07T04:01:47.478Z,100505.00
2022-08-07T04:04:21.108Z,100507.00
2022-08-07T04:06:54.059Z,100510.00
2022-08-07T04:09:25.600Z,100511.00
2022-08-07T04:12:24.221Z,100494.00
2022-08-07T04:14:57.522Z,100512.00
2022-08-07T04:18:57.147Z,100513.00
2022-08-07T04:20:19.522Z,100504.00
2022-08-07T04:22:53.440Z,100508.00
2022-08-07T04:25:31.122Z,100506.00
2022-08-07T04:28:08.111Z,100478.00
2022-08-07T04:30:43.587Z,100511.00
2022-08-07T04:33:30.068Z,100513.00
2022-08-07T04:35:59.713Z,100507.00
2022-08-07T04:38:30.786Z,100514.00
2022-08-07T04:40:59.554Z,100513.00
2022-08-07T04:44:10.452Z,100510.00
2022-08-07T04:47:04.173Z,100508.00
2022-08-07T04:49:57.392Z,100514.00
2022-08-07T04:52:51.310Z,100509.00
2022-08-07T04:58:24.425Z,100518.00
2022-08-07T04:58:48.800Z,100512.00
2022-08-07T05:01:33.145Z,100519.00
2022-08-07T05:04:17.847Z,100522.00
2022-08-07T05:07:19.860Z,100517.00
2022-08-07T05:10:01.486Z,100526.00
2022-08-07T05:12:53.025Z,100522.00
2022-08-07T05:15:28.104Z,100525.00
2022-08-07T05:18:09.303Z,100533.00
2022-08-07T05:20:44.588Z,100529.00
2022-08-07T05:23:29.950Z,100528.00
2022-08-07T05:26:13.170Z,100527.00
2022-08-07T05:28:51.563Z,100530.00
2022-08-07T05:31:35.171Z,100529.00
2022-08-07T05:34:12.503Z,100522.00
2022-08-07T05:36:52.564Z,100496.00
2022-08-07T05:40:18.050Z,100535.00
2022-08-07T05:42:39.311Z,100530.00
2022-08-07T05:45:14.862Z,100528.00
2022-08-07T05:48:05.062Z,100535.00
2022-08-07T05:50:42.904Z,100536.00
2022-08-07T05:54:12.867Z,100529.00
2022-08-07T05:56:06.156Z,100532.00
2022-08-07T05:58:40.995Z,100530.00
2022-08-07T06:01:19.795Z,100488.00
2022-08-07T06:03:58.604Z,100522.00
2022-08-07T06:06:32.640Z,100520.00
2022-08-07T06:09:05.959Z,100525.00
2022-08-07T06:11:40.363Z,100527.00
2022-08-07T06:14:12.719Z,100526.00
2022-08-07T06:16:56.484Z,100515.00
2022-08-07T06:19:51.981Z,100526.00
2022-08-07T06:22:23.868Z,100520.00
2022-08-07T06:25:03.522Z,100525.00
2022-08-07T06:27:44.180Z,100521.00
2022-08-07T06:30:32.321Z,100510.00
2022-08-07T06:33:15.697Z,100514.00
2022-08-07T06:35:47.565Z,100516.00
2022-08-07T06:38:33.394Z,100517.00
2022-08-07T06:41:07.142Z,100518.00
2022-08-07T06:43:46.101Z,100516.00
2022-08-07T06:46:31.090Z,100519.00
2022-08-07T06:49:02.989Z,100524.00
2022-08-07T06:51:49.455Z,100514.00
2022-08-07T06:55:32.585Z,100525.00
2022-08-07T06:57:11.701Z,100525.00
2022-08-07T07:00:13.791Z,100518.00
2022-08-07T07:02:48.924Z,100517.00
2022-08-07T07:06:02.681Z,100516.00
2022-08-07T07:08:18.158Z,100520.00
2022-08-07T07:10:57.019Z,100512.00
2022-08-07T07:13:55.985Z,100514.00
2022-08-07T07:16:30.900Z,100507.00
2022-08-07T07:19:54.538Z,100515.00
2022-08-07T07:22:12.159Z,100496.00
2022-08-07T07:24:56.997Z,100494.00
2022-08-07T07:27:58.593Z,100504.00
2022-08-07T07:30:39.717Z,100502.00
2022-08-07T07:33:15.178Z,100498.00
2022-08-07T07:36:04.758Z,100492.00
2022-08-07T07:38:36.009Z,100492.00
2022-08-07T07:41:09.728Z,100507.00
2022-08-07T07:44:13.903Z,100491.00
2022-08-07T07:46:53.962Z,100498.00
2022-08-07T07:50:33.819Z,100490.00
2022-08-07T07:52:21.781Z,100476.00
2022-08-07T07:54:52.354Z,100476.00
2022-08-07T07:57:51.987Z,100483.00
2022-08-07T08:00:28.849Z,100476.00
2022-08-07T08:03:06.483Z,100487.00
2022-08-07T08:05:42.787Z,100478.00
2022-08-07T08:08:34.653Z,100463.00
2022-08-07T08:11:08.661Z,100476.00
2022-08-07T08:13:54.956Z,100477.00
2022-08-07T08:16:32.462Z,100480.00
2022-08-07T08:19:09.927Z,100485.00
2022-08-07T08:22:16.769Z,100487.00
2022-08-07T08:25:25.046Z,100484.00
2022-08-07T08:28:03.616Z,100484.00
2022-08-07T08:30:37.472Z,100480.00
2022-08-07T08:33:16.891Z,100483.00
2022-08-07T08:35:51.074Z,100486.00
2022-08-07T08:38:29.513Z,100482.00
2022-08-07T08:41:13.953Z,100484.00
2022-08-07T08:43:59.020Z,100481.00
2022-08-07T08:46:45.000Z,100487.00
2022-08-07T08:49:33.514Z,100482.00
2022-08-07T08:52:21.208Z,100478.00
2022-08-07T08:55:01.248Z,100480.00
2022-08-07T08:57:43.257Z,100476.00
2022-08-07T09:00:15.232Z,100480.00
2022-08-07T09:02:57.705Z,100481.00
2022-08-07T09:05:39.206Z,100479.00
2022-08-07T09:08:28.522Z,100481.00
2022-08-07T09:11:25.030Z,100476.00
2022-08-07T09:14:16.326Z,100476.00
2022-08-07T09:17:03.070Z,100476.00
2022-08-07T09:19:55.256Z,100470.00
2022-08-07T09:24:33.849Z,100473.00
2022-08-07T09:25:42.928Z,100470.00
2022-08-07T09:30:05.754Z,100458.00
2022-08-07T09:31:38.777Z,100454.00
2022-08-07T09:34:21.560Z,100435.00
2022-08-07T09:37:00.878Z,100454.00
2022-08-07T09:39:54.626Z,100453.00
2022-08-07T09:42:50.461Z,100455.00
2022-08-07T09:47:25.694Z,100462.00
2022-08-07T09:48:55.817Z,100448.00
2022-08-07T09:52:15.720Z,100444.00
2022-08-07T09:54:50.318Z,100442.00
2022-08-07T09:58:07.568Z,100439.00
2022-08-07T10:01:03.361Z,100433.00
2022-08-07T10:04:03.192Z,100431.00
2022-08-07T10:07:31.698Z,100433.00
2022-08-07T10:11:00.242Z,100418.00
2022-08-07T10:14:00.221Z,100424.00
2022-08-07T10:16:59.598Z,100427.00
2022-08-07T10:20:13.915Z,100412.00
2022-08-07T10:24:04.971Z,100415.00
2022-08-07T10:26:52.966Z,100402.00
2022-08-07T10:29:53.896Z,100406.00
2022-08-07T10:33:00.022Z,100400.00
2022-08-07T10:35:55.462Z,100395.00
2022-08-07T10:38:50.196Z,100387.00
2022-08-07T10:41:54.752Z,100387.00
2022-08-07T10:44:37.792Z,100390.00
2022-08-07T10:47:26.874Z,100394.00
2022-08-07T10:50:15.199Z,100400.00
2022-08-07T10:53:05.170Z,100376.00
2022-08-07T10:55:47.182Z,100379.00
2022-08-07T10:58:45.927Z,100377.00
2022-08-07T11:01:51.405Z,100357.00
2022-08-07T11:04:47.229Z,100357.00
2022-08-07T11:07:58.319Z,100352.00
2022-08-07T11:10:30.749Z,100351.00
2022-08-07T11:13:42.348Z,100350.00
2022-08-07T11:16:07.145Z,100347.00
2022-08-07T11:18:43.778Z,100337.00
2022-08-07T11:21:32.252Z,100346.00
2022-08-07T11:24:20.476Z,100336.00
2022-08-07T11:27:03.545Z,100332.00
2022-08-07T11:29:47.429Z,100341.00
2022-08-07T11:32:26.502Z,100335.00
2022-08-07T11:35:05.171Z,100330.00
2022-08-07T11:38:12.640Z,100317.00
2022-08-07T11:40:57.514Z,100294.00
2022-08-07T11:43:54.524Z,100324.00
2022-08-07T11:46:48.659Z,100308.00
2022-08-07T11:50:30.073Z,100297.00
2022-08-07T11:53:10.864Z,100306.00
2022-08-07T11:56:14.022Z,100281.00
2022-08-07T12:00:07.698Z,100288.00
2022-08-07T12:02:30.225Z,100288.00
2022-08-07T12:05:28.537Z,100299.00
2022-08-07T12:08:31.371Z,100293.00
2022-08-07T12:11:21.583Z,100283.00
2022-08-07T12:13:58.017Z,100294.00
2022-08-07T12:16:31.749Z,100285.00
2022-08-07T12:19:14.710Z,100287.00
2022-08-07T12:22:37.218Z,100285.00
2022-08-07T12:26:00.319Z,100293.00
2022-08-07T12:28:15.831Z,100283.00
2022-08-07T12:31:00.536Z,100276.00
2022-08-07T12:34:01.471Z,100275.00
2022-08-07T12:36:32.626Z,100266.00
2022-08-07T12:39:38.843Z,100258.00
2022-08-07T12:41:55.377Z,100259.00
2022-08-07T12:44:27.699Z,100261.00
2022-08-07T12:47:11.101Z,100267.00
2022-08-07T12:49:53.809Z,100262.00
2022-08-07T12:52:47.699Z,100260.00
2022-08-07T12:55:41.256Z,100253.00
2022-08-07T12:58:21.560Z,100254.00
2022-08-07T13:01:09.320Z,100243.00
2022-08-07T13:04:05.163Z,100240.00
2022-08-07T13:07:04.302Z,100238.00
2022-08-07T13:10:20.931Z,100233.00
2022-08-07T13:13:02.095Z,100236.00
2022-08-07T13:15:47.437Z,100231.00
2022-08-07T13:18:35.071Z,100226.00
2022-08-07T13:21:35.014Z,100206.00
2022-08-07T13:24:21.337Z,100224.00
2022-08-07T13:27:05.613Z,100222.00
2022-08-07T13:29:47.794Z,100225.00
2022-08-07T13:32:32.262Z,100228.00
2022-08-07T13:35:13.257Z,100217.00
2022-08-07T13:38:00.904Z,100205.00
2022-08-07T13:40:42.645Z,100203.00
2022-08-07T13:43:16.196Z,100212.00
2022-08-07T13:46:12.320Z,100184.00
2022-08-07T13:48:40.851Z,100209.00
2022-08-07T13:51:28.329Z,100207.00
2022-08-07T13:54:03.252Z,100188.00
2022-08-07T13:56:36.238Z,100196.00
2022-08-07T13:59:15.583Z,100189.00
2022-08-07T14:02:04.046Z,100189.00
2022-08-07T14:04:49.571Z,100175.00
2022-08-07T14:07:23.700Z,100173.00
2022-08-07T14:10:03.077Z,100169.00
2022-08-07T14:12:54.939Z,100175.00
2022-08-07T14:15:34.880Z,100178.00
2022-08-07T14:18:24.256Z,100172.00
2022-08-07T14:21:21.034Z,100181.00
2022-08-07T14:24:03.542Z,100185.00
2022-08-07T14:26:40.651Z,100170.00
2022-08-07T14:32:21.298Z,100169.00
2022-08-07T14:34:55.770Z,100168.00
2022-08-07T14:40:26.990Z,100169.00
2022-08-07T14:43:55.112Z,100173.00
2022-08-07T14:45:54.661Z,100161.00
2022-08-07T14:48:28.206Z,100174.00
2022-08-07T14:51:04.809Z,100158.00
2022-08-07T14:54:06.563Z,100166.00
2022-08-07T14:56:32.614Z,100166.00
2022-08-07T14:59:13.913Z,100153.00
2022-08-07T15:01:58.233Z,100163.00
2022-08-07T15:04:28.900Z,100157.00
2022-08-07T15:06:58.872Z,100165.00
2022-08-07T15:09:59.230Z,100156.00
2022-08-07T15:12:30.441Z,100158.00
2022-08-07T15:15:07.785Z,100157.00
2022-08-07T15:17:55.413Z,100154.00
2022-08-07T15:20:32.664Z,100151.00
2022-08-07T15:25:16.041Z,100151.00
2022-08-07T15:26:20.723Z,100150.00
2022-08-07T15:30:03.584Z,100147.00
2022-08-07T15:32:00.821Z,100158.00
2022-08-07T15:34:50.779Z,100118.00
2022-08-07T15:38:18.390Z,100147.00
2022-08-07T15:40:34.733Z,100147.00
2022-08-07T15:43:53.869Z,100151.00
2022-08-07T15:46:31.868Z,100141.00
2022-08-07T15:49:15.286Z,100103.00
2022-08-07T15:54:34.613Z,100140.00
2022-08-07T15:57:39.204Z,100133.00
2022-08-07T16:00:06.260Z,100140.00
2022-08-07T16:02:46.743Z,100133.00
2022-08-07T16:05:19.652Z,100127.00
2022-08-07T16:08:30.195Z,100122.00
2022-08-07T16:10:48.924Z,100114.00
2022-08-07T16:13:58.896Z,100090.00
2022-08-07T16:16:42.923Z,100119.00
2022-08-07T16:19:59.619Z,100114.00
2022-08-07T16:23:05.410Z,100114.00
2022-08-07T16:25:52.425Z,100110.00
2022-08-07T16:30:07.193Z,100114.00
2022-08-07T16:31:51.197Z,100119.00
2022-08-07T16:34:40.386Z,100114.00
2022-08-07T16:38:05.739Z,100121.00
2022-08-07T16:41:01.805Z,100118.00
2022-08-07T16:44:06.591Z,100107.00
2022-08-07T16:47:35.986Z,100114.00
2022-08-07T16:50:39.291Z,100111.00
2022-08-07T16:53:55.358Z,100107.00
2022-08-07T16:56:37.574Z,100116.00
2022-08-07T16:59:17.981Z,100114.00
2022-08-07T17:02:03.049Z,100105.00
2022-08-07T17:04:57.595Z,100113.00
2022-08-07T17:07:55.329Z,100104.00
2022-08-07T17:10:38.359Z,100112.00
2022-08-07T17:14:17.957Z,100106.00
2022-08-07T17:16:56.052Z,100112.00
2022-08-07T17:20:02.512Z,100110.00
2022-08-07T17:22:42.472Z,100112.00
2022-08-07T17:25:19.385Z,100107.00
2022-08-07T17:28:00.434Z,100103.00
2022-08-07T17:30:36.404Z,100097.00
2022-08-07T17:33:39.251Z,100106.00
2022-08-07T17:36:26.435Z,100105.00
2022-08-07T17:39:10.196Z,100112.00
2022-08-07T17:42:02.775Z,100110.00
2022-08-07T17:44:50.074Z,100077.00
2022-08-07T17:47:41.844Z,100123.00
2022-08-07T17:50:19.965Z,100116.00
2022-08-07T17:52:59.782Z,100110.00
2022-08-07T17:55:55.782Z,100112.00
2022-08-07T17:58:39.385Z,100108.00
2022-08-07T18:01:22.626Z,100116.00
2022-08-07T18:04:16.144Z,100110.00
2022-08-07T18:07:19.233Z,100107.00
2022-08-07T18:10:06.231Z,100109.00
2022-08-07T18:13:09.965Z,100108.00
2022-08-07T18:15:53.739Z,100100.00
2022-08-07T18:18:45.959Z,100107.00
2022-08-07T18:21:42.357Z,100104.00
2022-08-07T18:24:33.743Z,100082.00
2022-08-07T18:27:39.268Z,100115.00
2022-08-07T18:30:30.742Z,100112.00
2022-08-07T18:33:58.102Z,100121.00
2022-08-07T18:36:45.079Z,100123.00
2022-08-07T18:40:07.086Z,100122.00
2022-08-07T18:42:44.210Z,100129.00
2022-08-07T18:45:42.965Z,100129.00
2022-08-07T18:50:05.017Z,100138.00
2022-08-07T18:52:33.963Z,100132.00
2022-08-07T18:54:30.782Z,100140.00
2022-08-07T18:57:40.030Z,100144.00
2022-08-07T19:00:32.032Z,100137.00
2022-08-07T19:03:12.118Z,100145.00
2022-08-07T19:06:03.293Z,100152.00
2022-08-07T19:08:52.216Z,100155.00
2022-08-07T19:11:39.253Z,100160.00
2022-08-07T19:14:52.652Z,100165.00
2022-08-07T19:17:55.713Z,100160.00
2022-08-07T19:21:10.028Z,100164.00
2022-08-07T19:23:58.767Z,100165.00
2022-08-07T19:27:01.899Z,100179.00
2022-08-07T19:31:03.995Z,100178.00
2022-08-07T19:32:27.246Z,100176.00
2022-08-07T19:35:07.940Z,100180.00
2022-08-07T19:37:56.502Z,100177.00
2022-08-07T19:40:34.549Z,100175.00
2022-08-07T19:43:10.800Z,100178.00
2022-08-07T19:46:05.615Z,100186.00
2022-08-07T19:48:43.851Z,100191.00
2022-08-07T19:51:19.291Z,100175.00
2022-08-07T19:54:44.420Z,100185.00
2022-08-07T19:57:51.256Z,100182.00
2022-08-07T19:59:40.592Z,100181.00
2022-08-07T20:02:19.685Z,100150.00
2022-08-07T20:04:52.585Z,100192.00
2022-08-07T20:07:47.545Z,100168.00
2022-08-07T20:10:36.245Z,100189.00
2022-08-07T20:13:23.807Z,100193.00
2022-08-07T20:15:58.184Z,100196.00
2022-08-07T20:18:32.382Z,100199.00
2022-08-07T20:21:20.888Z,100203.00
2022-08-07T20:23:57.710Z,100207.00
2022-08-07T20:26:38.444Z,100207.00
2022-08-07T20:29:47.951Z,100205.00
2022-08-07T20:32:11.525Z,100198.00
2022-08-07T20:34:53.517Z,100210.00
2022-08-07T20:37:29.853Z,100204.00
2022-08-07T20:40:31.496Z,100194.00
2022-08-07T20:42:57.913Z,100198.00
2022-08-07T20:46:24.919Z,100208.00
2022-08-07T20:48:30.327Z,100213.00
2022-08-07T20:51:01.369Z,100214.00
2022-08-07T20:54:03.404Z,100208.00
2022-08-07T20:56:26.206Z,100205.00
2022-08-07T20:59:05.803Z,100210.00
2022-08-07T21:01:45.829Z,100213.00
2022-08-07T21:04:29.529Z,100219.00
2022-08-07T21:07:03.999Z,100222.00
2022-08-07T21:09:53.104Z,100220.00
2022-08-07T21:12:31.328Z,100217.00
2022-08-07T21:15:08.092Z,100223.00
2022-08-07T21:18:02.748Z,100226.00
2022-08-07T21:20:33.354Z,100216.00
2022-08-07T21:23:08.804Z,100222.00
2022-08-07T21:26:03.181Z,100226.00
2022-08-07T21:28:50.103Z,100220.00
2022-08-07T21:32:42.874Z,100218.00
2022-08-07T21:34:32.576Z,100215.00
2022-08-07T21:37:11.695Z,100221.00
2022-08-07T21:39:54.796Z,100226.00
2022-08-07T21:42:42.933Z,100227.00
2022-08-07T21:46:07.543Z,100227.00
2022-08-07T21:48:27.756Z,100224.00
2022-08-07T21:51:12.431Z,100227.00
2022-08-07T21:53:53.682Z,100230.00
2022-08-07T21:56:37.830Z,100222.00
2022-08-07T22:00:02.622Z,100231.00
2022-08-07T22:02:35.107Z,100227.00
2022-08-07T22:05:06.865Z,100222.00
2022-08-07T22:07:58.077Z,100222.00
2022-08-07T22:10:33.719Z,100226.00
2022-08-07T22:13:09.414Z,100222.00
2022-08-07T22:16:44.089Z,100228.00
2022-08-07T22:18:45.411Z,100225.00
2022-08-07T22:21:22.206Z,100229.00
2022-08-07T22:23:57.652Z,100234.00
2022-08-07T22:26:43.987Z,100239.00
2022-08-07T22:29:33.868Z,100238.00
2022-08-07T22:32:22.529Z,100235.00
2022-08-07T22:34:56.210Z,100238.00
2022-08-07T22:38:04.572Z,100242.00
2022-08-07T22:40:50.809Z,100244.00
2022-08-07T22:43:31.472Z,100238.00
2022-08-07T22:47:02.507Z,100252.00
2022-08-07T22:49:56.105Z,100236.00
2022-08-07T22:53:02.769Z,100243.00
2022-08-07T22:55:47.339Z,100247.00
2022-08-07T22:58:46.831Z,100245.00
2022-08-07T23:02:04.712Z,100245.00
2022-08-07T23:04:53.390Z,100240.00
2022-08-07T23:07:44.320Z,100240.00
2022-08-07T23:10:42.101Z,100243.00
2022-08-07T23:14:09.039Z,100248.00
2022-08-07T23:16:55.378Z,100237.00
2022-08-07T23:19:59.912Z,100243.00
2022-08-07T23:22:45.322Z,100244.00
2022-08-07T23:25:32.696Z,100252.00
2022-08-07T23:28:28.689Z,100246.00
2022-08-07T23:31:18.844Z,100250.00
2022-08-07T23:34:37.945Z,100251.00
2022-08-07T23:37:35.543Z,100256.00
2022-08-07T23:40:36.306Z,100251.00
2022-08-07T23:43:44.719Z,100250.00
2022-08-07T23:47:00.628Z,100257.00
2022-08-07T23:50:28.651Z,100244.00
2022-08-07T23:53:16.724Z,100245.00
2022-08-07T23:55:59.017Z,100254.00
2022-08-07T23:58:42.522Z,100259.00
